sensor_id;sensor_type;location;lat;lon;timestamp;temperature;humidity
82877;DHT22;72655;47.596;7.658;2024-02-26T06:01:03;7.60;99.90
82877;DHT22;72655;47.596;7.658;2024-02-26T06:03:30;7.70;99.90
82877;DHT22;72655;47.596;7.658;2024-02-26T06:05:58;7.70;99.90
82877;DHT22;72655;47.596;7.658;2024-02-26T06:08:25;7.70;99.90
82877;DHT22;72655;47.596;7.658;2024-02-26T06:10:51;7.70;99.90
82877;DHT22;72655;47.596;7.658;2024-02-26T06:13:18;7.60;99.90
82877;DHT22;72655;47.596;7.658;2024-02-26T06:15:46;7.60;99.90
82877;DHT22;72655;47.596;7.658;2024-02-26T06:18:14;7.60;99.90
82877;DHT22;72655;47.596;7.658;2024-02-26T06:20:41;7.60;99.90
82877;DHT22;72655;47.596;7.658;2024-02-26T06:23:08;7.60;99.90
82877;DHT22;72655;47.596;7.658;2024-02-26T06:25:35;7.60;99.90
82877;DHT22;72655;47.596;7.658;2024-02-26T06:28:02;7.60;99.90
82877;DHT22;72655;47.596;7.658;2024-02-26T06:30:30;7.60;99.90
82877;DHT22;72655;47.596;7.658;2024-02-26T06:32:57;7.60;99.90
82877;DHT22;72655;47.596;7.658;2024-02-26T06:35:26;7.60;99.90
82877;DHT22;72655;47.596;7.658;2024-02-26T06:37:53;7.50;99.90
82877;DHT22;72655;47.596;7.658;2024-02-26T06:40:20;7.60;99.90
82877;DHT22;72655;47.596;7.658;2024-02-26T06:42:47;7.50;99.90
82877;DHT22;72655;47.596;7.658;2024-02-26T06:45:15;7.60;99.90
82877;DHT22;72655;47.596;7.658;2024-02-26T06:47:42;7.60;99.90
82877;DHT22;72655;47.596;7.658;2024-02-26T06:50:12;7.60;99.90
82877;DHT22;72655;47.596;7.658;2024-02-26T06:52:40;7.60;99.90
82877;DHT22;72655;47.596;7.658;2024-02-26T06:55:08;7.60;99.90
82877;DHT22;72655;47.596;7.658;2024-02-26T06:57:35;7.60;99.90
82877;DHT22;72655;47.596;7.658;2024-02-26T07:00:02;7.60;99.90
82877;DHT22;72655;47.596;7.658;2024-02-26T07:02:29;7.60;99.90
82877;DHT22;72655;47.596;7.658;2024-02-26T07:04:56;7.50;99.90
82877;DHT22;72655;47.596;7.658;2024-02-26T07:07:23;7.50;99.90
82877;DHT22;72655;47.596;7.658;2024-02-26T07:09:52;7.50;99.90
82877;DHT22;72655;47.596;7.658;2024-02-26T07:12:20;7.50;99.90
82877;DHT22;72655;47.596;7.658;2024-02-26T07:14:47;7.50;99.90
82877;DHT22;72655;47.596;7.658;2024-02-26T07:17:14;7.50;99.90
82877;DHT22;72655;47.596;7.658;2024-02-26T07:19:41;7.50;99.90
82877;DHT22;72655;47.596;7.658;2024-02-26T07:22:08;7.60;99.90
82877;DHT22;72655;47.596;7.658;2024-02-26T07:24:35;7.60;99.90
82877;DHT22;72655;47.596;7.658;2024-02-26T07:27:04;7.60;99.90
82877;DHT22;72655;47.596;7.658;2024-02-26T07:29:31;7.60;99.90
82877;DHT22;72655;47.596;7.658;2024-02-26T07:31:59;7.60;99.90
82877;DHT22;72655;47.596;7.658;2024-02-26T07:34:25;7.60;99.90
82877;DHT22;72655;47.596;7.658;2024-02-26T07:36:54;7.60;99.90
82877;DHT22;72655;47.596;7.658;2024-02-26T07:39:21;7.60;99.90
82877;DHT22;72655;47.596;7.658;2024-02-26T07:41:48;7.60;99.90
82877;DHT22;72655;47.596;7.658;2024-02-26T07:44:19;7.70;99.90
82877;DHT22;72655;47.596;7.658;2024-02-26T07:46:46;7.70;99.90
82877;DHT22;72655;47.596;7.658;2024-02-26T07:49:13;7.80;99.90
82877;DHT22;72655;47.596;7.658;2024-02-26T07:51:40;7.80;99.90
82877;DHT22;72655;47.596;7.658;2024-02-26T07:54:07;7.90;99.90
82877;DHT22;72655;47.596;7.658;2024-02-26T07:56:34;8.00;99.90
82877;DHT22;72655;47.596;7.658;2024-02-26T07:59:00;8.00;99.90
82877;DHT22;72655;47.596;7.658;2024-02-26T08:01:29;8.10;99.90
82877;DHT22;72655;47.596;7.658;2024-02-26T08:03:56;8.10;99.90
82877;DHT22;72655;47.596;7.658;2024-02-26T08:06:24;8.10;99.90
82877;DHT22;72655;47.596;7.658;2024-02-26T08:08:51;8.20;99.90
82877;DHT22;72655;47.596;7.658;2024-02-26T08:11:18;8.20;99.90
82877;DHT22;72655;47.596;7.658;2024-02-26T08:13:45;8.20;99.90
82877;DHT22;72655;47.596;7.658;2024-02-26T08:16:12;8.20;99.90
82877;DHT22;72655;47.596;7.658;2024-02-26T08:18:40;8.30;99.90
82877;DHT22;72655;47.596;7.658;2024-02-26T08:21:07;8.30;99.90
82877;DHT22;72655;47.596;7.658;2024-02-26T08:23:35;8.40;99.90
82877;DHT22;72655;47.596;7.658;2024-02-26T08:26:02;8.40;99.90
82877;DHT22;72655;47.596;7.658;2024-02-26T08:28:30;8.40;99.90
82877;DHT22;72655;47.596;7.658;2024-02-26T08:30:56;8.40;99.90
82877;DHT22;72655;47.596;7.658;2024-02-26T08:33:24;8.50;99.90
82877;DHT22;72655;47.596;7.658;2024-02-26T08:35:52;8.50;99.90
82877;DHT22;72655;47.596;7.658;2024-02-26T08:38:19;8.50;99.90
82877;DHT22;72655;47.596;7.658;2024-02-26T08:40:46;8.60;99.90
82877;DHT22;72655;47.596;7.658;2024-02-26T08:43:13;8.60;99.90
82877;DHT22;72655;47.596;7.658;2024-02-26T08:45:40;8.60;99.90
82877;DHT22;72655;47.596;7.658;2024-02-26T08:48:07;8.70;99.90
82877;DHT22;72655;47.596;7.658;2024-02-26T08:50:34;8.70;99.90
82877;DHT22;72655;47.596;7.658;2024-02-26T08:53:03;8.70;99.90
82877;DHT22;72655;47.596;7.658;2024-02-26T08:55:29;8.80;99.90
82877;DHT22;72655;47.596;7.658;2024-02-26T08:57:56;8.90;99.90
82877;DHT22;72655;47.596;7.658;2024-02-26T09:00:23;8.90;99.90
82877;DHT22;72655;47.596;7.658;2024-02-26T09:02:50;8.90;99.90
82877;DHT22;72655;47.596;7.658;2024-02-26T09:05:17;9.00;99.90
82877;DHT22;72655;47.596;7.658;2024-02-26T09:07:44;9.10;99.90
82877;DHT22;72655;47.596;7.658;2024-02-26T09:10:13;9.10;99.90
82877;DHT22;72655;47.596;7.658;2024-02-26T09:12:40;9.20;99.90
82877;DHT22;72655;47.596;7.658;2024-02-26T09:15:08;9.30;99.90
82877;DHT22;72655;47.596;7.658;2024-02-26T09:17:35;9.30;99.90
82877;DHT22;72655;47.596;7.658;2024-02-26T09:20:02;9.40;99.90
82877;DHT22;72655;47.596;7.658;2024-02-26T09:22:30;9.40;99.90
82877;DHT22;72655;47.596;7.658;2024-02-26T09:24:57;9.40;99.90
82877;DHT22;72655;47.596;7.658;2024-02-26T09:27:26;9.50;99.90
82877;DHT22;72655;47.596;7.658;2024-02-26T09:29:53;9.50;99.90
82877;DHT22;72655;47.596;7.658;2024-02-26T09:32:20;9.60;99.90
82877;DHT22;72655;47.596;7.658;2024-02-26T09:34:50;9.70;99.90
82877;DHT22;72655;47.596;7.658;2024-02-26T09:37:17;9.70;99.90
82877;DHT22;72655;47.596;7.658;2024-02-26T09:39:44;9.70;99.90
82877;DHT22;72655;47.596;7.658;2024-02-26T09:42:13;9.80;99.90
82877;DHT22;72655;47.596;7.658;2024-02-26T09:44:42;9.90;99.90
82877;DHT22;72655;47.596;7.658;2024-02-26T09:47:11;9.90;99.90
82877;DHT22;72655;47.596;7.658;2024-02-26T09:49:41;10.00;99.90
82877;DHT22;72655;47.596;7.658;2024-02-26T09:52:09;10.10;99.90
82877;DHT22;72655;47.596;7.658;2024-02-26T09:54:36;10.20;99.90
82877;DHT22;72655;47.596;7.658;2024-02-26T09:57:03;10.20;99.90
82877;DHT22;72655;47.596;7.658;2024-02-26T09:59:38;10.30;99.90
82877;DHT22;72655;47.596;7.658;2024-02-26T10:02:11;10.40;99.90
82877;DHT22;72655;47.596;7.658;2024-02-26T10:04:38;10.50;99.90
82877;DHT22;72655;47.596;7.658;2024-02-26T10:07:10;10.50;99.90
82877;DHT22;72655;47.596;7.658;2024-02-26T10:09:37;10.60;99.90
82877;DHT22;72655;47.596;7.658;2024-02-26T10:12:06;10.70;99.90
82877;DHT22;72655;47.596;7.658;2024-02-26T10:14:34;10.70;99.90
82877;DHT22;72655;47.596;7.658;2024-02-26T10:17:02;10.70;99.90
82877;DHT22;72655;47.596;7.658;2024-02-26T10:19:30;10.70;99.90
82877;DHT22;72655;47.596;7.658;2024-02-26T10:21:58;10.80;99.90
82877;DHT22;72655;47.596;7.658;2024-02-26T10:24:26;10.80;99.90
82877;DHT22;72655;47.596;7.658;2024-02-26T10:26:54;10.80;99.90
82877;DHT22;72655;47.596;7.658;2024-02-26T10:29:23;10.90;99.90
82877;DHT22;72655;47.596;7.658;2024-02-26T10:31:50;11.00;99.90
82877;DHT22;72655;47.596;7.658;2024-02-26T10:34:18;11.00;99.90
82877;DHT22;72655;47.596;7.658;2024-02-26T10:36:46;11.00;99.90
82877;DHT22;72655;47.596;7.658;2024-02-26T10:39:14;11.20;99.90
82877;DHT22;72655;47.596;7.658;2024-02-26T10:41:43;11.30;99.90
82877;DHT22;72655;47.596;7.658;2024-02-26T10:44:10;11.30;99.90
82877;DHT22;72655;47.596;7.658;2024-02-26T10:46:38;11.40;99.90
82877;DHT22;72655;47.596;7.658;2024-02-26T10:49:13;11.40;99.90
82877;DHT22;72655;47.596;7.658;2024-02-26T10:51:42;11.50;99.90
82877;DHT22;72655;47.596;7.658;2024-02-26T10:54:15;11.50;99.90
82877;DHT22;72655;47.596;7.658;2024-02-26T10:56:42;11.50;99.90
82877;DHT22;72655;47.596;7.658;2024-02-26T10:59:10;11.50;99.90
82877;DHT22;72655;47.596;7.658;2024-02-26T11:01:37;11.50;99.90
82877;DHT22;72655;47.596;7.658;2024-02-26T11:04:06;11.60;99.90
82877;DHT22;72655;47.596;7.658;2024-02-26T11:06:35;11.60;99.90
82877;DHT22;72655;47.596;7.658;2024-02-26T11:09:02;11.70;99.90
82877;DHT22;72655;47.596;7.658;2024-02-26T11:11:32;11.70;99.90
82877;DHT22;72655;47.596;7.658;2024-02-26T11:14:01;11.80;99.90
82877;DHT22;72655;47.596;7.658;2024-02-26T11:16:30;11.80;99.90
82877;DHT22;72655;47.596;7.658;2024-02-26T11:18:58;11.80;99.90
82877;DHT22;72655;47.596;7.658;2024-02-26T11:21:25;11.80;99.90
82877;DHT22;72655;47.596;7.658;2024-02-26T11:24:05;11.80;99.90
82877;DHT22;72655;47.596;7.658;2024-02-26T11:26:34;11.90;99.90
82877;DHT22;72655;47.596;7.658;2024-02-26T11:29:04;12.00;99.90
82877;DHT22;72655;47.596;7.658;2024-02-26T11:31:32;12.10;99.90
82877;DHT22;72655;47.596;7.658;2024-02-26T11:33:59;12.00;99.90
82877;DHT22;72655;47.596;7.658;2024-02-26T11:36:27;12.10;99.90
82877;DHT22;72655;47.596;7.658;2024-02-26T11:38:55;12.10;99.90
82877;DHT22;72655;47.596;7.658;2024-02-26T11:41:22;12.20;99.90
82877;DHT22;72655;47.596;7.658;2024-02-26T11:43:51;12.10;99.90
82877;DHT22;72655;47.596;7.658;2024-02-26T11:46:28;12.20;99.90
82877;DHT22;72655;47.596;7.658;2024-02-26T11:49:00;12.30;99.90
82877;DHT22;72655;47.596;7.658;2024-02-26T11:51:28;12.40;99.90
82877;DHT22;72655;47.596;7.658;2024-02-26T11:53:55;12.50;99.90
82877;DHT22;72655;47.596;7.658;2024-02-26T11:56:24;12.60;99.90
82877;DHT22;72655;47.596;7.658;2024-02-26T11:59:02;12.70;99.90
82877;DHT22;72655;47.596;7.658;2024-02-26T12:01:37;12.80;99.90
82877;DHT22;72655;47.596;7.658;2024-02-26T12:04:05;12.90;99.90
82877;DHT22;72655;47.596;7.658;2024-02-26T12:06:43;12.90;99.90
82877;DHT22;72655;47.596;7.658;2024-02-26T12:09:11;13.00;99.90
82877;DHT22;72655;47.596;7.658;2024-02-26T12:11:39;13.00;99.90
82877;DHT22;72655;47.596;7.658;2024-02-26T12:14:08;13.10;99.90
82877;DHT22;72655;47.596;7.658;2024-02-26T12:16:36;13.20;99.90
82877;DHT22;72655;47.596;7.658;2024-02-26T12:19:07;13.20;99.90
82877;DHT22;72655;47.596;7.658;2024-02-26T12:21:35;13.20;99.90
82877;DHT22;72655;47.596;7.658;2024-02-26T12:24:10;13.20;99.90
82877;DHT22;72655;47.596;7.658;2024-02-26T12:26:38;13.20;99.90
82877;DHT22;72655;47.596;7.658;2024-02-26T12:29:07;13.20;99.90
82877;DHT22;72655;47.596;7.658;2024-02-26T12:31:35;13.20;99.90
82877;DHT22;72655;47.596;7.658;2024-02-26T12:34:04;13.20;99.90
82877;DHT22;72655;47.596;7.658;2024-02-26T12:36:32;13.20;99.90
82877;DHT22;72655;47.596;7.658;2024-02-26T12:39:00;13.30;99.90
82877;DHT22;72655;47.596;7.658;2024-02-26T12:41:27;13.30;99.90
82877;DHT22;72655;47.596;7.658;2024-02-26T12:43:55;13.40;99.90
82877;DHT22;72655;47.596;7.658;2024-02-26T12:46:24;13.40;99.90
82877;DHT22;72655;47.596;7.658;2024-02-26T12:48:51;13.50;99.90
82877;DHT22;72655;47.596;7.658;2024-02-26T12:51:19;13.60;99.90
82877;DHT22;72655;47.596;7.658;2024-02-26T12:53:47;13.70;99.90
82877;DHT22;72655;47.596;7.658;2024-02-26T12:56:16;13.80;99.90
82877;DHT22;72655;47.596;7.658;2024-02-26T12:58:44;13.90;99.90
82877;DHT22;72655;47.596;7.658;2024-02-26T13:01:15;14.00;99.90
82877;DHT22;72655;47.596;7.658;2024-02-26T13:03:44;14.10;99.90
82877;DHT22;72655;47.596;7.658;2024-02-26T13:06:11;14.10;99.90
82877;DHT22;72655;47.596;7.658;2024-02-26T13:08:38;14.20;99.90
82877;DHT22;72655;47.596;7.658;2024-02-26T13:11:06;14.30;99.90
82877;DHT22;72655;47.596;7.658;2024-02-26T13:13:33;14.40;99.90
82877;DHT22;72655;47.596;7.658;2024-02-26T13:16:04;14.40;99.90
82877;DHT22;72655;47.596;7.658;2024-02-26T13:18:33;14.50;99.90
82877;DHT22;72655;47.596;7.658;2024-02-26T13:21:10;14.60;99.90
82877;DHT22;72655;47.596;7.658;2024-02-26T13:23:38;14.80;99.90
82877;DHT22;72655;47.596;7.658;2024-02-26T13:26:06;15.20;99.90
82877;DHT22;72655;47.596;7.658;2024-02-26T13:28:34;15.90;99.90
82877;DHT22;72655;47.596;7.658;2024-02-26T13:31:01;16.20;99.90
82877;DHT22;72655;47.596;7.658;2024-02-26T13:33:30;16.20;99.90
82877;DHT22;72655;47.596;7.658;2024-02-26T13:35:58;16.20;99.90
82877;DHT22;72655;47.596;7.658;2024-02-26T13:38:27;16.20;99.90
82877;DHT22;72655;47.596;7.658;2024-02-26T13:40:55;16.30;99.90
82877;DHT22;72655;47.596;7.658;2024-02-26T13:43:21;16.40;99.90
82877;DHT22;72655;47.596;7.658;2024-02-26T13:45:48;16.50;99.90
82877;DHT22;72655;47.596;7.658;2024-02-26T13:48:15;16.50;99.90
82877;DHT22;72655;47.596;7.658;2024-02-26T13:50:43;16.60;99.90
82877;DHT22;72655;47.596;7.658;2024-02-26T13:53:11;16.80;99.90
82877;DHT22;72655;47.596;7.658;2024-02-26T13:55:41;17.00;99.90
82877;DHT22;72655;47.596;7.658;2024-02-26T13:58:11;17.30;99.90
82877;DHT22;72655;47.596;7.658;2024-02-26T14:00:39;17.60;99.70
82877;DHT22;72655;47.596;7.658;2024-02-26T14:03:07;17.90;99.90
82877;DHT22;72655;47.596;7.658;2024-02-26T14:05:34;18.50;99.10
82877;DHT22;72655;47.596;7.658;2024-02-26T14:08:01;19.60;97.20
82877;DHT22;72655;47.596;7.658;2024-02-26T14:10:28;20.70;96.00
82877;DHT22;72655;47.596;7.658;2024-02-26T14:12:57;22.10;95.20
82877;DHT22;72655;47.596;7.658;2024-02-26T14:15:24;23.20;94.00
82877;DHT22;72655;47.596;7.658;2024-02-26T14:17:51;23.60;91.00
82877;DHT22;72655;47.596;7.658;2024-02-26T14:20:21;23.90;90.50
82877;DHT22;72655;47.596;7.658;2024-02-26T14:22:48;24.40;88.70
82877;DHT22;72655;47.596;7.658;2024-02-26T14:25:16;24.60;87.90
82877;DHT22;72655;47.596;7.658;2024-02-26T14:27:43;24.60;89.10
82877;DHT22;72655;47.596;7.658;2024-02-26T14:30:13;24.90;87.00
82877;DHT22;72655;47.596;7.658;2024-02-26T14:32:40;25.40;84.80
82877;DHT22;72655;47.596;7.658;2024-02-26T14:35:08;25.10;82.50
82877;DHT22;72655;47.596;7.658;2024-02-26T14:37:35;24.40;84.30
82877;DHT22;72655;47.596;7.658;2024-02-26T14:40:02;23.80;85.00
82877;DHT22;72655;47.596;7.658;2024-02-26T14:42:29;22.50;87.00
82877;DHT22;72655;47.596;7.658;2024-02-26T14:44:55;21.60;90.70
82877;DHT22;72655;47.596;7.658;2024-02-26T14:47:23;21.30;91.00
82877;DHT22;72655;47.596;7.658;2024-02-26T14:49:50;20.90;91.10
82877;DHT22;72655;47.596;7.658;2024-02-26T14:52:17;20.80;91.50
82877;DHT22;72655;47.596;7.658;2024-02-26T14:54:44;20.50;91.70
82877;DHT22;72655;47.596;7.658;2024-02-26T14:57:10;20.00;91.10
82877;DHT22;72655;47.596;7.658;2024-02-26T14:59:37;19.50;92.40
82877;DHT22;72655;47.596;7.658;2024-02-26T15:02:04;19.00;92.70
82877;DHT22;72655;47.596;7.658;2024-02-26T15:04:33;18.60;93.80
82877;DHT22;72655;47.596;7.658;2024-02-26T15:07:00;18.20;94.70
82877;DHT22;72655;47.596;7.658;2024-02-26T15:09:27;17.80;94.50
82877;DHT22;72655;47.596;7.658;2024-02-26T15:11:54;17.70;95.10
82877;DHT22;72655;47.596;7.658;2024-02-26T15:14:22;17.70;94.90
82877;DHT22;72655;47.596;7.658;2024-02-26T15:16:50;17.90;95.20
82877;DHT22;72655;47.596;7.658;2024-02-26T15:19:17;18.10;94.40
82877;DHT22;72655;47.596;7.658;2024-02-26T15:21:46;18.50;94.00
82877;DHT22;72655;47.596;7.658;2024-02-26T15:24:13;18.60;93.90
82877;DHT22;72655;47.596;7.658;2024-02-26T15:26:41;18.70;94.00
82877;DHT22;72655;47.596;7.658;2024-02-26T15:29:08;19.00;93.50
82877;DHT22;72655;47.596;7.658;2024-02-26T15:31:35;19.70;92.70
82877;DHT22;72655;47.596;7.658;2024-02-26T15:34:02;20.70;91.50
82877;DHT22;72655;47.596;7.658;2024-02-26T15:36:29;21.70;90.20
82877;DHT22;72655;47.596;7.658;2024-02-26T15:38:57;22.60;88.70
82877;DHT22;72655;47.596;7.658;2024-02-26T15:41:24;22.70;87.60
82877;DHT22;72655;47.596;7.658;2024-02-26T15:43:50;21.90;86.70
82877;DHT22;72655;47.596;7.658;2024-02-26T15:46:17;21.30;87.20
82877;DHT22;72655;47.596;7.658;2024-02-26T15:48:44;21.50;86.60
82877;DHT22;72655;47.596;7.658;2024-02-26T15:51:17;21.70;85.40
82877;DHT22;72655;47.596;7.658;2024-02-26T15:53:44;21.10;84.80
82877;DHT22;72655;47.596;7.658;2024-02-26T15:56:12;20.10;88.80
82877;DHT22;72655;47.596;7.658;2024-02-26T15:58:39;19.10;90.00
82877;DHT22;72655;47.596;7.658;2024-02-26T16:01:06;18.30;90.20
82877;DHT22;72655;47.596;7.658;2024-02-26T16:03:36;17.60;92.10
82877;DHT22;72655;47.596;7.658;2024-02-26T16:06:03;17.00;92.50
82877;DHT22;72655;47.596;7.658;2024-02-26T16:08:30;16.50;93.30
82877;DHT22;72655;47.596;7.658;2024-02-26T16:10:58;16.20;93.50
82877;DHT22;72655;47.596;7.658;2024-02-26T16:13:26;15.80;94.30
82877;DHT22;72655;47.596;7.658;2024-02-26T16:15:54;15.50;94.40
82877;DHT22;72655;47.596;7.658;2024-02-26T16:18:22;15.30;95.50
82877;DHT22;72655;47.596;7.658;2024-02-26T16:20:49;15.10;95.20
82877;DHT22;72655;47.596;7.658;2024-02-26T16:23:16;15.10;95.10
82877;DHT22;72655;47.596;7.658;2024-02-26T16:25:42;15.10;94.90
82877;DHT22;72655;47.596;7.658;2024-02-26T16:28:09;14.90;95.40
82877;DHT22;72655;47.596;7.658;2024-02-26T16:30:37;14.80;95.50
82877;DHT22;72655;47.596;7.658;2024-02-26T16:33:04;14.60;95.50
82877;DHT22;72655;47.596;7.658;2024-02-26T16:35:31;14.40;95.70
82877;DHT22;72655;47.596;7.658;2024-02-26T16:37:58;14.10;96.20
82877;DHT22;72655;47.596;7.658;2024-02-26T16:40:25;14.00;96.50
82877;DHT22;72655;47.596;7.658;2024-02-26T16:42:52;13.80;96.30
82877;DHT22;72655;47.596;7.658;2024-02-26T16:45:18;13.70;96.60
82877;DHT22;72655;47.596;7.658;2024-02-26T16:47:47;13.50;96.00
82877;DHT22;72655;47.596;7.658;2024-02-26T16:50:14;13.40;96.30
82877;DHT22;72655;47.596;7.658;2024-02-26T16:52:40;13.30;97.20
82877;DHT22;72655;47.596;7.658;2024-02-26T16:55:07;13.30;97.20
82877;DHT22;72655;47.596;7.658;2024-02-26T16:57:35;13.20;96.80
82877;DHT22;72655;47.596;7.658;2024-02-26T17:00:02;13.10;97.20
82877;DHT22;72655;47.596;7.658;2024-02-26T17:02:29;12.90;97.00
82877;DHT22;72655;47.596;7.658;2024-02-26T17:04:57;12.80;97.30
82877;DHT22;72655;47.596;7.658;2024-02-26T17:07:24;12.70;97.60
82877;DHT22;72655;47.596;7.658;2024-02-26T17:09:51;12.60;97.70
82877;DHT22;72655;47.596;7.658;2024-02-26T17:12:17;12.50;97.90
82877;DHT22;72655;47.596;7.658;2024-02-26T17:14:46;12.40;98.00
82877;DHT22;72655;47.596;7.658;2024-02-26T17:17:15;12.30;98.20
82877;DHT22;72655;47.596;7.658;2024-02-26T17:19:42;12.20;98.40
82877;DHT22;72655;47.596;7.658;2024-02-26T17:22:10;12.10;99.00
82877;DHT22;72655;47.596;7.658;2024-02-26T17:24:37;12.00;99.40
82877;DHT22;72655;47.596;7.658;2024-02-26T17:27:04;11.90;99.40
82877;DHT22;72655;47.596;7.658;2024-02-26T17:29:31;11.90;99.70
82877;DHT22;72655;47.596;7.658;2024-02-26T17:31:59;11.80;99.90
82877;DHT22;72655;47.596;7.658;2024-02-26T17:34:27;11.80;99.90
82877;DHT22;72655;47.596;7.658;2024-02-26T17:36:53;11.70;99.90
82877;DHT22;72655;47.596;7.658;2024-02-26T17:39:21;11.60;99.90
82877;DHT22;72655;47.596;7.658;2024-02-26T17:41:48;11.40;99.90
82877;DHT22;72655;47.596;7.658;2024-02-26T17:44:15;11.40;99.90
82877;DHT22;72655;47.596;7.658;2024-02-26T17:46:41;11.30;99.90
82877;DHT22;72655;47.596;7.658;2024-02-26T17:49:08;11.20;99.90
82877;DHT22;72655;47.596;7.658;2024-02-26T17:51:35;11.20;99.90
82877;DHT22;72655;47.596;7.658;2024-02-26T17:54:02;11.10;99.90
82877;DHT22;72655;47.596;7.658;2024-02-26T17:56:30;11.00;99.90
82877;DHT22;72655;47.596;7.658;2024-02-26T17:58:56;11.00;99.90
82877;DHT22;72655;47.596;7.658;2024-02-26T18:01:23;10.90;99.90
82877;DHT22;72655;47.596;7.658;2024-02-26T18:03:50;10.90;99.90
82877;DHT22;72655;47.596;7.658;2024-02-26T18:06:18;10.90;99.90
82877;DHT22;72655;47.596;7.658;2024-02-26T18:08:45;10.90;99.90
82877;DHT22;72655;47.596;7.658;2024-02-26T18:11:11;10.80;99.90
82877;DHT22;72655;47.596;7.658;2024-02-26T18:13:39;10.70;99.90
82877;DHT22;72655;47.596;7.658;2024-02-26T18:16:10;10.60;99.90
82877;DHT22;72655;47.596;7.658;2024-02-26T18:18:36;10.40;99.90
82877;DHT22;72655;47.596;7.658;2024-02-26T18:21:04;10.30;99.90
82877;DHT22;72655;47.596;7.658;2024-02-26T18:23:31;10.20;99.90
82877;DHT22;72655;47.596;7.658;2024-02-26T18:25:58;10.20;99.90
82877;DHT22;72655;47.596;7.658;2024-02-26T18:28:24;10.10;99.90
82877;DHT22;72655;47.596;7.658;2024-02-26T18:30:53;10.00;99.90
82877;DHT22;72655;47.596;7.658;2024-02-26T18:33:19;9.90;99.90
82877;DHT22;72655;47.596;7.658;2024-02-26T18:35:47;9.70;99.90
82877;DHT22;72655;47.596;7.658;2024-02-26T18:38:14;9.50;99.90
82877;DHT22;72655;47.596;7.658;2024-02-26T18:40:40;9.30;99.90
82877;DHT22;72655;47.596;7.658;2024-02-26T18:43:07;9.20;99.90
82877;DHT22;72655;47.596;7.658;2024-02-26T18:45:34;9.10;99.90
82877;DHT22;72655;47.596;7.658;2024-02-26T18:48:02;9.10;99.90
82877;DHT22;72655;47.596;7.658;2024-02-26T18:50:30;8.90;99.90
